Time;durP1;ratioP1;P1;durP2;ratioP2;P2;SDS_P1;SDS_P2;PMS_P1;PMS_P2;Temp;Humidity;BMP_temperature;BMP_pressure;BME280_temperature;BME280_humidity;BME280_pressure;Samples;Min_cycle;Max_cycle;Signal;HPM_P1;HPM_P2
2022/05/13 00:01:08;;;;;;;1.75;0.90;;;12.50;99.90;;;;;;5067752;28;20384;-58
2022/05/13 00:03:35;;;;;;;1.80;0.90;;;12.40;99.90;;;;;;5067939;28;20025;-58
2022/05/13 00:06:01;;;;;;;2.45;0.73;;;12.40;99.90;;;;;;5068247;28;20408;-58
2022/05/13 00:08:27;;;;;;;2.28;0.43;;;12.30;99.90;;;;;;5070495;28;20497;-57
2022/05/13 00:10:53;;;;;;;3.58;0.50;;;12.20;99.90;;;;;;5069140;28;20035;-57
2022/05/13 00:13:19;;;;;;;1.73;0.40;;;12.20;99.90;;;;;;5067207;28;20503;-58
2022/05/13 00:15:46;;;;;;;4.90;1.02;;;12.20;99.90;;;;;;5067199;28;20033;-58
2022/05/13 00:18:12;;;;;;;2.08;0.73;;;12.20;99.90;;;;;;5070176;28;20460;-58
2022/05/13 00:20:38;;;;;;;1.35;0.98;;;12.10;99.90;;;;;;5069845;28;20108;-59
2022/05/13 00:23:03;;;;;;;3.58;0.88;;;12.00;99.90;;;;;;5066998;28;20397;-58
2022/05/13 00:25:33;;;;;;;0.90;0.40;;;12.00;99.90;;;;;;5067467;28;20043;-59
2022/05/13 00:28:00;;;;;;;1.40;0.70;;;11.90;99.90;;;;;;5066978;28;20161;-58
2022/05/13 00:30:28;;;;;;;2.42;0.38;;;11.90;99.90;;;;;;5069978;28;20033;-59
2022/05/13 00:32:54;;;;;;;1.33;0.63;;;11.90;99.90;;;;;;5070307;28;20048;-58
2022/05/13 00:35:21;;;;;;;1.33;0.40;;;11.80;99.90;;;;;;5070340;28;20396;-59
2022/05/13 00:37:46;;;;;;;2.30;0.77;;;11.80;99.90;;;;;;5070308;28;20538;-59
2022/05/13 00:40:14;;;;;;;2.20;0.73;;;11.80;99.90;;;;;;5070019;28;20032;-58
2022/05/13 00:42:39;;;;;;;4.20;0.70;;;11.80;99.90;;;;;;5069558;28;20126;-58
2022/05/13 00:45:06;;;;;;;2.22;0.85;;;11.70;99.90;;;;;;5069892;28;20078;-58
2022/05/13 00:47:31;;;;;;;4.05;0.85;;;11.70;99.90;;;;;;5069717;28;20456;-58
2022/05/13 00:50:02;;;;;;;2.72;0.68;;;11.60;99.90;;;;;;5070004;28;20529;-58
2022/05/13 00:52:28;;;;;;;1.05;0.50;;;11.60;99.90;;;;;;5070064;28;20028;-59
2022/05/13 00:54:54;;;;;;;1.00;0.57;;;11.60;99.90;;;;;;5070047;28;20096;-58
2022/05/13 00:57:21;;;;;;;2.22;0.60;;;11.50;99.90;;;;;;5069782;28;20028;-58
2022/05/13 00:59:49;;;;;;;4.25;0.82;;;11.50;99.90;;;;;;5069984;28;20025;-58
2022/05/13 01:02:16;;;;;;;0.85;0.52;;;11.50;99.90;;;;;;5068084;28;20043;-58
2022/05/13 01:04:43;;;;;;;2.25;0.50;;;11.40;99.90;;;;;;5066792;28;20023;-58
2022/05/13 01:07:16;;;;;;;1.02;0.47;;;11.40;99.90;;;;;;5068008;28;20178;-58
2022/05/13 01:09:46;;;;;;;2.20;0.60;;;11.40;99.90;;;;;;5069827;28;20435;-58
2022/05/13 01:12:16;;;;;;;1.95;0.68;;;11.30;99.90;;;;;;5069455;28;20021;-57
2022/05/13 01:14:47;;;;;;;0.97;0.33;;;11.30;99.90;;;;;;5052188;28;20025;-57
2022/05/13 01:20:04;;;;;;;2.65;0.50;;;11.20;99.90;;;;;;5069820;28;20094;-58
2022/05/13 01:22:30;;;;;;;2.28;0.47;;;11.20;99.90;;;;;;5069593;28;20020;-58
2022/05/13 01:24:56;;;;;;;3.60;0.68;;;11.10;99.90;;;;;;5069518;28;20036;-58
2022/05/13 01:27:22;;;;;;;2.83;0.65;;;11.10;99.90;;;;;;5069582;28;20091;-57
2022/05/13 01:29:48;;;;;;;0.75;0.50;;;11.10;99.90;;;;;;5069619;28;20023;-58
2022/05/13 01:32:14;;;;;;;1.88;0.50;;;11.10;99.90;;;;;;5069537;28;20027;-58
2022/05/13 01:34:42;;;;;;;1.02;0.55;;;11.20;99.90;;;;;;5069631;28;20448;-58
2022/05/13 01:37:07;;;;;;;2.80;0.50;;;11.20;99.90;;;;;;5066128;28;20033;-58
2022/05/13 01:39:33;;;;;;;0.38;0.22;;;11.20;99.90;;;;;;5069504;28;20047;-58
2022/05/13 01:41:58;;;;;;;3.55;0.93;;;11.20;99.90;;;;;;5069170;28;20082;-58
2022/05/13 01:44:24;;;;;;;2.05;0.63;;;11.20;99.90;;;;;;5071143;28;20028;-57
2022/05/13 01:46:50;;;;;;;1.38;0.40;;;11.20;99.90;;;;;;5058814;28;20056;-58
2022/05/13 01:49:15;;;;;;;2.58;0.47;;;11.20;99.90;;;;;;5051390;28;20468;-58
2022/05/13 01:51:41;;;;;;;0.40;0.40;;;11.20;99.90;;;;;;5050011;28;20031;-58
2022/05/13 01:54:06;;;;;;;3.67;0.50;;;11.30;99.90;;;;;;5052604;28;20075;-58
2022/05/13 01:56:32;;;;;;;3.42;0.98;;;11.20;99.90;;;;;;5049849;28;20029;-58
2022/05/13 01:58:59;;;;;;;1.23;0.50;;;11.20;99.90;;;;;;5049768;28;20057;-58
2022/05/13 02:01:24;;;;;;;3.10;0.60;;;11.20;99.90;;;;;;5049962;28;20436;-58
2022/05/13 02:03:50;;;;;;;3.90;0.50;;;11.20;99.90;;;;;;5050389;28;20063;-58
2022/05/13 02:06:25;;;;;;;0.85;0.63;;;11.20;99.90;;;;;;5052859;28;20043;-58
2022/05/13 02:08:56;;;;;;;1.63;0.68;;;11.20;99.90;;;;;;5052984;28;20470;-58
2022/05/13 02:11:24;;;;;;;1.00;0.75;;;11.20;99.90;;;;;;5059579;28;20028;-57
2022/05/13 02:13:51;;;;;;;5.55;0.60;;;11.20;99.90;;;;;;5072825;28;20112;-57
2022/05/13 02:16:17;;;;;;;1.88;0.75;;;11.20;99.90;;;;;;5072972;28;20032;-58
2022/05/13 02:18:43;;;;;;;2.42;0.68;;;11.10;99.90;;;;;;5072166;28;20028;-58
2022/05/13 02:21:09;;;;;;;0.80;0.57;;;11.20;99.90;;;;;;5071928;28;20055;-59
2022/05/13 02:23:35;;;;;;;2.22;0.80;;;11.20;99.90;;;;;;5069512;28;20020;-58
2022/05/13 02:26:06;;;;;;;0.80;0.43;;;11.20;99.90;;;;;;5069057;28;20047;-58
2022/05/13 02:28:32;;;;;;;1.15;0.50;;;11.30;99.90;;;;;;5069610;28;20020;-58
2022/05/13 02:31:01;;;;;;;3.10;0.50;;;11.30;99.90;;;;;;5069582;28;20036;-58
2022/05/13 02:33:28;;;;;;;0.60;0.35;;;11.30;99.90;;;;;;5072239;28;20393;-58
2022/05/13 02:35:55;;;;;;;4.00;0.80;;;11.30;99.90;;;;;;5072556;28;20039;-58
2022/05/13 02:38:21;;;;;;;2.17;0.73;;;11.30;99.90;;;;;;5072339;28;20024;-58
2022/05/13 02:43:31;;;;;;;1.85;0.55;;;11.30;99.90;;;;;;5072568;28;20035;-58
2022/05/13 02:45:58;;;;;;;0.95;0.40;;;11.20;99.90;;;;;;5072284;28;20032;-58
2022/05/13 02:48:24;;;;;;;1.17;0.40;;;11.20;99.90;;;;;;5072209;28;20052;-58
2022/05/13 02:50:50;;;;;;;3.40;0.40;;;11.30;99.90;;;;;;5072114;28;20182;-58
2022/05/13 02:53:15;;;;;;;0.55;0.35;;;11.30;99.90;;;;;;5072636;28;20107;-58
2022/05/13 02:55:41;;;;;;;0.50;0.43;;;11.30;99.90;;;;;;5070501;28;20047;-60
2022/05/13 02:58:07;;;;;;;0.75;0.38;;;11.30;99.90;;;;;;5072115;28;20020;-58
2022/05/13 03:00:33;;;;;;;1.73;0.47;;;11.30;99.90;;;;;;5071884;28;20512;-58
2022/05/13 03:02:59;;;;;;;1.05;0.40;;;11.30;99.90;;;;;;5072182;28;20024;-57
2022/05/13 03:05:26;;;;;;;1.25;0.45;;;11.30;99.90;;;;;;5071833;28;20059;-58
2022/05/13 03:07:52;;;;;;;1.75;0.40;;;11.30;99.90;;;;;;5071918;28;20032;-58
2022/05/13 03:10:19;;;;;;;2.85;0.55;;;11.30;99.90;;;;;;5071815;28;20078;-58
2022/05/13 03:12:44;;;;;;;2.35;0.40;;;11.30;99.90;;;;;;5071365;28;20111;-59
2022/05/13 03:15:11;;;;;;;3.42;0.70;;;11.30;99.90;;;;;;5071652;28;20115;-58
2022/05/13 03:17:39;;;;;;;2.05;0.60;;;11.30;99.90;;;;;;5071601;28;20035;-58
2022/05/13 03:20:06;;;;;;;3.17;0.68;;;11.30;99.90;;;;;;5071471;28;20401;-58
2022/05/13 03:22:32;;;;;;;0.65;0.52;;;11.30;99.90;;;;;;5071574;28;20029;-58
2022/05/13 03:24:59;;;;;;;3.78;0.70;;;11.30;99.90;;;;;;5071370;28;20082;-58
2022/05/13 03:27:24;;;;;;;0.63;0.47;;;11.30;99.90;;;;;;5071320;28;20033;-58
2022/05/13 03:29:50;;;;;;;1.92;0.50;;;11.30;99.90;;;;;;5071377;28;20048;-58
2022/05/13 03:32:16;;;;;;;0.52;0.30;;;11.30;99.90;;;;;;5071348;28;20484;-58
2022/05/13 03:34:41;;;;;;;0.63;0.40;;;11.30;99.90;;;;;;5071332;28;20064;-58
2022/05/13 03:37:07;;;;;;;2.42;0.47;;;11.30;99.90;;;;;;5067846;28;20393;-58
2022/05/13 03:39:32;;;;;;;0.40;0.28;;;11.30;99.90;;;;;;5071464;28;20031;-58
2022/05/13 03:41:58;;;;;;;5.10;0.55;;;11.30;99.90;;;;;;5071044;28;20024;-58
2022/05/13 03:44:24;;;;;;;3.45;0.70;;;11.30;99.90;;;;;;5071082;28;20437;-58
2022/05/13 03:46:49;;;;;;;0.57;0.40;;;11.30;99.90;;;;;;5071001;28;20056;-58
2022/05/13 03:49:15;;;;;;;0.55;0.40;;;11.30;99.90;;;;;;5067706;28;20032;-58
2022/05/13 03:51:40;;;;;;;1.58;0.50;;;11.20;99.90;;;;;;5070837;28;20028;-58
2022/05/13 03:54:06;;;;;;;0.50;0.43;;;11.20;99.90;;;;;;5070834;28;20366;-58
2022/05/13 03:56:32;;;;;;;2.17;0.35;;;11.20;99.90;;;;;;5070600;28;20077;-58
2022/05/13 03:58:58;;;;;;;2.33;0.85;;;11.20;99.90;;;;;;5070843;28;20450;-58
2022/05/13 04:01:23;;;;;;;1.42;0.60;;;11.20;99.90;;;;;;5070916;28;20027;-58
2022/05/13 04:03:49;;;;;;;1.00;0.45;;;11.20;99.90;;;;;;5070685;28;20518;-58
2022/05/13 04:09:02;;;;;;;2.60;0.77;;;11.10;99.90;;;;;;5069794;28;20048;-58
2022/05/13 04:11:37;;;;;;;0.90;0.32;;;11.10;99.90;;;;;;5070159;28;20159;-58
2022/05/13 04:16:52;;;;;;;1.75;0.30;;;11.10;99.90;;;;;;5068058;28;20857;-59
2022/05/13 04:19:19;;;;;;;1.17;0.60;;;11.10;99.90;;;;;;5067587;28;20100;-60
2022/05/13 04:21:46;;;;;;;0.98;0.52;;;11.00;99.90;;;;;;5069088;28;20081;-58
2022/05/13 04:24:19;;;;;;;3.47;0.50;;;11.10;99.90;;;;;;5070123;28;20032;-59
2022/05/13 04:26:45;;;;;;;0.52;0.47;;;11.10;99.90;;;;;;5070164;28;20094;-58
2022/05/13 04:29:11;;;;;;;3.00;1.25;;;11.10;99.90;;;;;;5070251;28;20427;-58
2022/05/13 04:31:39;;;;;;;1.33;0.40;;;11.10;99.90;;;;;;5069238;28;20036;-58
2022/05/13 04:34:06;;;;;;;2.97;0.57;;;11.20;99.90;;;;;;5067143;28;20044;-58
2022/05/13 04:36:32;;;;;;;0.77;0.40;;;11.10;99.90;;;;;;5067435;28;20036;-58
2022/05/13 04:38:58;;;;;;;0.70;0.68;;;11.10;99.90;;;;;;5070385;28;20037;-57
2022/05/13 04:44:10;;;;;;;1.70;0.35;;;11.20;99.90;;;;;;5070396;28;20106;-58
2022/05/13 04:46:37;;;;;;;0.50;0.45;;;11.10;99.90;;;;;;5069834;28;20044;-58
2022/05/13 04:49:04;;;;;;;0.50;0.43;;;11.20;99.90;;;;;;5069763;28;20536;-58
2022/05/13 04:51:29;;;;;;;2.60;0.50;;;11.20;99.90;;;;;;5069983;28;20032;-58
2022/05/13 04:53:56;;;;;;;0.73;0.40;;;11.30;99.90;;;;;;5070001;28;20028;-58
2022/05/13 04:56:24;;;;;;;1.02;0.55;;;11.30;99.90;;;;;;5069671;28;20400;-58
2022/05/13 04:58:50;;;;;;;0.68;0.40;;;11.40;99.90;;;;;;5069881;28;20033;-58
2022/05/13 05:01:17;;;;;;;1.85;0.68;;;11.40;99.90;;;;;;5068389;28;20048;-59
2022/05/13 05:03:44;;;;;;;1.13;0.65;;;11.40;99.90;;;;;;5067029;28;20065;-59
2022/05/13 05:06:11;;;;;;;2.05;0.50;;;11.50;99.90;;;;;;5066753;28;20497;-58
2022/05/13 05:08:38;;;;;;;2.38;0.98;;;11.50;99.90;;;;;;5069650;28;20500;-58
2022/05/13 05:11:05;;;;;;;0.40;0.40;;;11.60;99.90;;;;;;5068616;28;20528;-58
2022/05/13 05:13:34;;;;;;;1.67;0.80;;;11.70;99.90;;;;;;5066684;28;20024;-58
2022/05/13 05:16:00;;;;;;;1.90;0.63;;;11.80;99.90;;;;;;5066814;28;20033;-58
2022/05/13 05:18:26;;;;;;;2.90;0.65;;;11.80;99.90;;;;;;5066871;28;20151;-58
2022/05/13 05:20:52;;;;;;;1.98;0.70;;;11.90;99.90;;;;;;5070837;28;20094;-57
2022/05/13 05:23:27;;;;;;;0.68;0.43;;;12.00;99.90;;;;;;5070838;28;20028;-58
2022/05/13 05:25:53;;;;;;;0.38;0.38;;;12.10;99.90;;;;;;5070798;28;20125;-57
2022/05/13 05:28:19;;;;;;;1.17;0.70;;;12.10;99.90;;;;;;5073553;28;20504;-58
2022/05/13 05:30:45;;;;;;;0.65;0.38;;;12.20;99.90;;;;;;5073866;28;20537;-58
2022/05/13 05:33:12;;;;;;;0.73;0.50;;;12.20;99.90;;;;;;5073732;28;20077;-57
2022/05/13 05:35:38;;;;;;;0.70;0.50;;;12.30;99.90;;;;;;5073098;28;20036;-58
2022/05/13 05:38:04;;;;;;;2.45;0.50;;;12.30;99.90;;;;;;5069362;28;20021;-58
2022/05/13 05:40:30;;;;;;;0.50;0.40;;;12.30;99.90;;;;;;5067893;28;20488;-58
2022/05/13 05:42:56;;;;;;;2.17;0.90;;;12.40;99.90;;;;;;5053029;28;20100;-58
2022/05/13 05:45:23;;;;;;;1.02;0.60;;;12.50;99.90;;;;;;5053406;28;20037;-58
2022/05/13 05:47:49;;;;;;;3.92;0.68;;;12.50;99.90;;;;;;5050582;28;20064;-58
2022/05/13 05:50:19;;;;;;;2.25;0.70;;;12.60;99.90;;;;;;5050383;28;20029;-59
2022/05/13 05:52:45;;;;;;;1.85;0.55;;;12.70;99.90;;;;;;5052260;28;20033;-58
2022/05/13 05:58:04;;;;;;;0.60;0.60;;;12.90;99.90;;;;;;5052767;28;20120;-58
2022/05/13 06:00:31;;;;;;;0.93;0.43;;;13.00;99.90;;;;;;5050200;28;20498;-58
2022/05/13 06:02:57;;;;;;;1.15;0.63;;;13.10;99.90;;;;;;5052139;28;20061;-58
2022/05/13 06:05:24;;;;;;;4.47;1.35;;;13.10;99.90;;;;;;5052648;28;20032;-58
2022/05/13 06:07:50;;;;;;;1.73;0.60;;;13.30;99.90;;;;;;5052938;28;20040;-59
2022/05/13 06:10:17;;;;;;;0.65;0.65;;;13.30;99.90;;;;;;5052918;28;20470;-58
2022/05/13 06:12:43;;;;;;;2.53;0.95;;;13.40;99.90;;;;;;5070496;28;20085;-59
2022/05/13 06:15:12;;;;;;;2.22;0.93;;;13.50;99.90;;;;;;5072727;28;20024;-58
2022/05/13 06:18:04;;;;;;;2.92;0.50;;;13.70;99.90;;;;;;5072669;28;20439;-60
2022/05/13 06:20:31;;;;;;;5.32;0.70;;;13.80;99.90;;;;;;5069680;28;20054;-58
2022/05/13 06:22:57;;;;;;;2.70;0.88;;;13.90;99.90;;;;;;5069319;28;20025;-58
2022/05/13 06:25:23;;;;;;;1.90;0.38;;;14.10;99.90;;;;;;5069298;28;20454;-58
2022/05/13 06:27:51;;;;;;;0.85;0.55;;;14.30;99.90;;;;;;5069477;28;20055;-58
2022/05/13 06:30:25;;;;;;;2.75;0.63;;;14.40;99.90;;;;;;5072030;28;20027;-58
2022/05/13 06:32:52;;;;;;;3.15;0.60;;;14.50;99.90;;;;;;5072342;28;20035;-58
2022/05/13 06:35:18;;;;;;;2.00;0.63;;;14.70;99.90;;;;;;5072054;28;20099;-59
2022/05/13 06:37:44;;;;;;;3.00;0.80;;;14.90;99.90;;;;;;5072345;28;20032;-58
2022/05/13 06:40:10;;;;;;;1.25;0.77;;;15.00;99.90;;;;;;5072631;28;20385;-58
2022/05/13 06:42:36;;;;;;;1.15;0.80;;;15.20;99.90;;;;;;5071740;28;20057;-59
2022/05/13 06:45:02;;;;;;;1.67;0.60;;;15.50;99.90;;;;;;5071790;28;20060;-58
2022/05/13 06:47:28;;;;;;;0.90;0.70;;;15.40;99.90;;;;;;5071761;28;20139;-58
2022/05/13 06:49:53;;;;;;;2.38;0.77;;;15.60;99.90;;;;;;5072361;28;20691;-58
2022/05/13 06:52:19;;;;;;;1.55;0.65;;;15.60;99.90;;;;;;5071790;28;20031;-58
2022/05/13 06:54:45;;;;;;;5.68;1.13;;;15.70;99.90;;;;;;5071840;28;20099;-59
2022/05/13 06:57:10;;;;;;;2.15;0.60;;;15.80;99.90;;;;;;5071432;28;20028;-59
2022/05/13 06:59:37;;;;;;;0.47;0.45;;;16.00;99.90;;;;;;5071422;28;20028;-59
2022/05/13 07:02:03;;;;;;;0.82;0.60;;;16.20;99.90;;;;;;5070865;28;20036;-59
2022/05/13 07:04:29;;;;;;;1.90;0.80;;;16.40;99.90;;;;;;5065146;28;20029;-59
2022/05/13 07:06:55;;;;;;;2.72;0.65;;;16.50;99.90;;;;;;5063619;28;20047;-59
2022/05/13 07:09:20;;;;;;;1.42;0.70;;;16.60;99.90;;;;;;5051850;28;20031;-59
2022/05/13 07:11:46;;;;;;;2.95;0.68;;;16.50;99.90;;;;;;5061890;28;20481;-59
2022/05/13 07:14:12;;;;;;;1.30;0.43;;;16.70;99.90;;;;;;5071639;28;20110;-59
2022/05/13 07:16:38;;;;;;;3.47;1.02;;;16.90;99.90;;;;;;5071810;28;20039;-59
2022/05/13 07:19:04;;;;;;;3.63;0.77;;;17.10;99.90;;;;;;5071465;28;20020;-59
2022/05/13 07:21:30;;;;;;;1.88;0.77;;;17.10;99.90;;;;;;5071569;28;20036;-59
2022/05/13 07:23:56;;;;;;;0.77;0.55;;;17.20;99.90;;;;;;5071458;28;20028;-59
2022/05/13 07:26:22;;;;;;;2.63;0.93;;;17.40;99.90;;;;;;5070988;28;20043;-59
2022/05/13 07:28:48;;;;;;;1.10;0.60;;;17.70;99.60;;;;;;5071224;28;20028;-59
2022/05/13 07:31:13;;;;;;;2.90;0.68;;;17.90;99.30;;;;;;5071322;28;20115;-60
2022/05/13 07:33:39;;;;;;;3.60;0.68;;;18.40;98.60;;;;;;5071262;28;20365;-59
2022/05/13 07:36:05;;;;;;;2.40;0.63;;;18.80;97.20;;;;;;5070011;28;20029;-59
2022/05/13 07:38:32;;;;;;;1.85;1.02;;;19.30;96.30;;;;;;5068592;28;20029;-59
2022/05/13 07:41:17;;;;;;;2.95;0.70;;;19.70;95.20;;;;;;5070656;28;20021;-59
2022/05/13 07:43:44;;;;;;;1.77;0.68;;;19.80;94.70;;;;;;5070868;28;20024;-59
2022/05/13 07:46:11;;;;;;;1.08;0.60;;;20.30;93.10;;;;;;5070903;28;20108;-60
2022/05/13 07:48:39;;;;;;;2.60;0.82;;;20.70;92.20;;;;;;5070696;28;20147;-60
2022/05/13 07:51:05;;;;;;;1.98;0.60;;;20.80;90.50;;;;;;5067388;28;20072;-60
2022/05/13 07:53:31;;;;;;;1.13;0.70;;;20.60;91.20;;;;;;5070693;28;20048;-60
2022/05/13 07:55:58;;;;;;;1.83;0.90;;;20.20;90.70;;;;;;5070635;28;20034;-59
2022/05/13 07:58:24;;;;;;;2.60;0.85;;;19.80;91.30;;;;;;5070658;28;20085;-60
2022/05/13 08:00:49;;;;;;;2.00;0.70;;;20.20;91.20;;;;;;5070611;28;20032;-60
2022/05/13 08:03:17;;;;;;;3.85;0.85;;;20.40;91.20;;;;;;5070573;28;20150;-60
2022/05/13 08:05:48;;;;;;;2.00;1.05;;;20.90;90.40;;;;;;5070616;28;20032;-60
2022/05/13 08:08:30;;;;;;;2.25;0.50;;;21.00;90.20;;;;;;5070454;28;20044;-60
2022/05/13 08:10:58;;;;;;;2.60;0.88;;;20.70;90.10;;;;;;5070397;28;20036;-60
2022/05/13 08:13:24;;;;;;;4.15;0.80;;;20.60;85.80;;;;;;5070134;28;20031;-60
2022/05/13 08:15:51;;;;;;;1.83;0.77;;;20.80;86.00;;;;;;5070588;28;20021;-60
2022/05/13 08:18:19;;;;;;;2.45;0.77;;;21.10;85.40;;;;;;5070863;28;20054;-60
2022/05/13 08:20:46;;;;;;;2.58;0.90;;;21.20;83.50;;;;;;5070250;28;20040;-60
2022/05/13 08:23:11;;;;;;;4.90;1.25;;;21.50;81.70;;;;;;5069296;28;20074;-60
2022/05/13 08:25:37;;;;;;;4.05;1.08;;;22.30;78.80;;;;;;5067263;28;20044;-60
2022/05/13 08:28:06;;;;;;;2.60;0.82;;;23.10;75.90;;;;;;5066682;28;20024;-61
2022/05/13 08:30:31;;;;;;;2.05;0.73;;;24.30;71.70;;;;;;5066928;28;20028;-60
2022/05/13 08:33:01;;;;;;;1.15;0.90;;;25.10;66.80;;;;;;5069020;28;20032;-60
2022/05/13 08:35:27;;;;;;;1.93;0.87;;;24.20;63.80;;;;;;5070047;28;20077;-60
2022/05/13 08:37:54;;;;;;;1.70;0.90;;;23.10;66.70;;;;;;5065417;28;20032;-59
2022/05/13 08:40:43;;;;;;;2.55;1.13;;;22.20;72.20;;;;;;5070076;28;20032;-60
2022/05/13 08:43:14;;;;;;;3.00;1.07;;;21.30;75.20;;;;;;5069792;28;20112;-59
2022/05/13 08:45:56;;;;;;;4.82;1.20;;;20.50;81.40;;;;;;5069957;28;20037;-59
2022/05/13 08:48:34;;;;;;;3.58;1.30;;;20.20;85.50;;;;;;5053525;28;20491;-60
2022/05/13 08:51:15;;;;;;;2.30;0.88;;;19.40;90.80;;;;;;5060845;28;20078;-59
2022/05/13 08:54:03;;;;;;;3.08;1.08;;;19.10;93.60;;;;;;5062739;28;20525;-59
2022/05/13 08:56:32;;;;;;;2.13;1.13;;;18.50;95.90;;;;;;5055531;28;20062;-58
2022/05/13 08:59:11;;;;;;;2.85;0.90;;;18.00;96.80;;;;;;5066448;28;20478;-59
2022/05/13 09:01:45;;;;;;;1.67;0.77;;;17.70;97.70;;;;;;5066611;28;20033;-58
2022/05/13 09:04:22;;;;;;;1.58;0.98;;;17.30;98.80;;;;;;5062328;28;20066;-58
2022/05/13 09:06:53;;;;;;;3.35;0.93;;;17.20;99.90;;;;;;5068833;28;20036;-60
2022/05/13 09:09:20;;;;;;;2.45;1.27;;;17.30;99.90;;;;;;5069449;28;20024;-59
2022/05/13 09:12:08;;;;;;;1.92;0.80;;;17.40;99.90;;;;;;5069402;28;20033;-59
2022/05/13 09:14:49;;;;;;;3.80;1.55;;;18.00;99.80;;;;;;5040474;28;20067;-59
2022/05/13 09:17:39;;;;;;;7.68;1.13;;;19.70;97.10;;;;;;5068064;28;20044;-59
2022/05/13 09:20:15;;;;;;;3.67;0.80;;;19.20;95.40;;;;;;5066399;28;20507;-61
2022/05/13 09:22:51;;;;;;;4.90;1.35;;;18.60;96.70;;;;;;5068006;28;20513;-61
2022/05/13 09:25:40;;;;;;;1.85;1.02;;;18.50;97.10;;;;;;5066671;28;20105;-60
2022/05/13 09:28:09;;;;;;;3.30;0.80;;;18.30;97.60;;;;;;5063215;28;20033;-60
2022/05/13 09:30:46;;;;;;;2.65;1.02;;;17.80;99.20;;;;;;5066557;28;20059;-61
2022/05/13 09:33:33;;;;;;;3.05;1.10;;;17.60;99.20;;;;;;5066359;28;20032;-59
2022/05/13 09:36:02;;;;;;;4.20;1.10;;;17.60;99.60;;;;;;5069142;28;20481;-61
2022/05/13 09:38:41;;;;;;;3.25;1.25;;;18.30;99.90;;;;;;5069106;28;20477;-62
2022/05/13 09:41:10;;;;;;;4.78;1.10;;;18.20;98.30;;;;;;5065827;28;20021;-62
2022/05/13 09:43:50;;;;;;;2.88;0.95;;;18.00;98.80;;;;;;5066251;28;20508;-60
2022/05/13 09:46:38;;;;;;;2.47;0.95;;;17.70;99.60;;;;;;5069307;28;20072;-59
2022/05/13 09:49:09;;;;;;;3.63;1.10;;;17.80;99.80;;;;;;5069305;28;20045;-59
2022/05/13 09:51:54;;;;;;;3.60;1.00;;;18.50;98.70;;;;;;5068457;28;20066;-60
2022/05/13 09:54:33;;;;;;;7.13;1.33;;;19.00;98.30;;;;;;5062841;28;20406;-59
2022/05/13 09:57:12;;;;;;;4.80;1.17;;;20.00;96.80;;;;;;5067067;28;20024;-59
2022/05/13 09:59:45;;;;;;;1.65;0.75;;;20.00;95.70;;;;;;5069141;28;20028;-59
2022/05/13 10:02:16;;;;;;;3.78;1.20;;;19.60;94.60;;;;;;5069416;28;20033;-60
2022/05/13 10:04:42;;;;;;;2.45;0.75;;;19.60;95.80;;;;;;5069674;28;20054;-60
2022/05/13 10:07:14;;;;;;;3.55;1.00;;;19.80;96.00;;;;;;5072671;28;20127;-59
2022/05/13 10:15:35;;;;;;;6.32;1.20;;;24.10;84.20;;;;;;5073029;28;20118;-60
2022/05/13 10:18:14;;;;;;;2.15;0.60;;;23.50;77.80;;;;;;5072806;28;20392;-59
2022/05/13 10:20:43;;;;;;;2.60;0.88;;;21.90;85.00;;;;;;5072339;28;20103;-60
2022/05/13 10:23:22;;;;;;;3.72;1.20;;;21.10;86.60;;;;;;5069375;28;20370;-59
2022/05/13 10:26:02;;;;;;;2.50;1.08;;;21.50;89.10;;;;;;5068963;28;20497;-61
2022/05/13 10:28:45;;;;;;;3.75;1.13;;;21.00;87.10;;;;;;5070358;28;20032;-60
2022/05/13 10:31:16;;;;;;;6.50;1.27;;;20.70;90.00;;;;;;5072378;28;20462;-60
2022/05/13 10:34:08;;;;;;;2.10;0.93;;;21.80;85.70;;;;;;5072499;28;20040;-61
2022/05/13 10:36:39;;;;;;;2.42;0.73;;;21.60;85.00;;;;;;5071801;28;20520;-60
2022/05/13 10:39:31;;;;;;;1.58;0.60;;;22.60;79.10;;;;;;5072389;28;20078;-60
2022/05/13 10:42:04;;;;;;;3.58;1.30;;;21.90;77.30;;;;;;5040897;28;20041;-60
2022/05/13 10:44:37;;;;;;;3.20;0.98;;;21.40;80.90;;;;;;5070703;28;20503;-60
2022/05/13 10:47:10;;;;;;;2.80;1.02;;;20.70;83.30;;;;;;5068793;28;20754;-60
2022/05/13 10:49:39;;;;;;;1.45;0.98;;;20.60;86.90;;;;;;5069079;28;20078;-59
2022/05/13 10:52:52;;;;;;;1.27;0.70;;;21.00;88.20;;;;;;5070759;28;20046;-59
2022/05/13 10:55:46;;;;;;;2.55;0.85;;;21.50;82.70;;;;;;5072032;28;20426;-60
2022/05/13 10:58:39;;;;;;;3.63;1.42;;;23.50;79.90;;;;;;5054348;28;20172;-59
2022/05/13 11:01:11;;;;;;;3.45;0.82;;;24.80;76.30;;;;;;5052027;28;20079;-59
2022/05/13 11:03:53;;;;;;;2.78;1.02;;;26.80;65.20;;;;;;5051066;28;20532;-59
2022/05/13 11:06:42;;;;;;;1.77;1.00;;;25.20;61.50;;;;;;5051759;28;20405;-60
2022/05/13 11:09:26;;;;;;;1.65;0.77;;;23.80;65.40;;;;;;5051661;28;20029;-59
2022/05/13 11:12:02;;;;;;;1.23;0.70;;;24.20;65.70;;;;;;5062492;28;20125;-59
2022/05/13 11:14:33;;;;;;;2.88;0.88;;;22.80;69.00;;;;;;5068543;28;20024;-60
2022/05/13 11:17:16;;;;;;;3.67;0.80;;;23.20;71.60;;;;;;5067349;28;20017;-59
2022/05/13 11:19:47;;;;;;;3.83;1.15;;;25.40;65.20;;;;;;5065198;28;20429;-59
2022/05/13 11:22:25;;;;;;;2.90;1.15;;;26.60;59.10;;;;;;5068390;28;20028;-59
2022/05/13 11:28:17;;;;;;;2.55;1.00;;;26.30;57.50;;;;;;5068209;28;20106;-60
2022/05/13 11:30:50;;;;;;;3.35;0.77;;;28.30;52.70;;;;;;5068181;28;20048;-59
2022/05/13 11:33:27;;;;;;;1.52;0.93;;;27.90;49.40;;;;;;5068411;28;20055;-59
2022/05/13 11:36:10;;;;;;;2.53;1.00;;;26.80;49.90;;;;;;5067899;28;20028;-59
2022/05/13 11:38:57;;;;;;;2.08;0.73;;;27.70;49.40;;;;;;5068228;28;20427;-60
2022/05/13 11:41:23;;;;;;;1.58;0.52;;;27.80;47.80;;;;;;5067814;28;20062;-60
2022/05/13 11:43:58;;;;;;;1.98;1.13;;;28.90;43.10;;;;;;5067769;28;20246;-60
2022/05/13 11:46:57;;;;;;;4.38;1.02;;;28.60;43.30;;;;;;5067652;28;20079;-60
2022/05/13 11:49:25;;;;;;;1.98;0.90;;;27.70;41.20;;;;;;5067681;28;20025;-60
2022/05/13 11:51:51;;;;;;;2.17;0.88;;;28.00;41.00;;;;;;5067909;28;20033;-60
2022/05/13 11:54:22;;;;;;;3.00;1.02;;;28.80;42.10;;;;;;5067578;28;20025;-60
2022/05/13 11:56:48;;;;;;;;;;;30.10;39.10;;;;;;5067988;28;20075;-60
2022/05/13 11:59:49;;;;;;;1.70;0.88;;;29.80;34.50;;;;;;5067639;28;19905;-60
2022/05/13 12:02:32;;;;;;;3.55;1.10;;;29.30;36.00;;;;;;5064545;28;20453;-60
2022/05/13 12:05:09;;;;;;;2.83;0.77;;;28.70;37.10;;;;;;5067178;28;20029;-60
2022/05/13 12:08:07;;;;;;;5.25;1.65;;;29.60;37.00;;;;;;5068180;28;20046;-60
2022/05/13 12:11:00;;;;;;;3.28;1.00;;;28.50;35.20;;;;;;5070694;28;20046;-60
2022/05/13 12:13:53;;;;;;;2.38;0.60;;;30.00;36.70;;;;;;5070659;28;20029;-61
2022/05/13 12:16:26;;;;;;;3.38;0.88;;;30.70;35.90;;;;;;5070228;28;20533;-60
2022/05/13 12:19:20;;;;;;;2.33;0.80;;;29.70;33.80;;;;;;5070482;28;20481;-61
2022/05/13 12:21:52;;;;;;;2.35;0.73;;;27.80;37.50;;;;;;5070588;28;20032;-60
2022/05/13 12:24:23;;;;;;;1.98;0.82;;;27.60;37.20;;;;;;5067927;28;20051;-61
2022/05/13 12:26:51;;;;;;;4.10;0.80;;;26.90;39.50;;;;;;5066827;28;20520;-60
2022/05/13 12:29:41;;;;;;;4.72;1.17;;;25.80;42.10;;;;;;5066418;28;20028;-60
2022/05/13 12:32:23;;;;;;;3.63;1.23;;;25.20;44.40;;;;;;5067116;28;20481;-60
2022/05/13 12:37:48;;;;;;;3.45;1.42;;;27.50;39.90;;;;;;5068603;28;20059;-60
2022/05/13 12:40:22;;;;;;;5.45;1.40;;;27.10;39.60;;;;;;5066647;28;20051;-60
2022/05/13 12:42:48;;;;;;;3.45;0.82;;;25.20;41.10;;;;;;5067740;28;20505;-60
2022/05/13 12:45:37;;;;;;;4.78;1.20;;;26.40;41.70;;;;;;5068694;28;20025;-61
2022/05/13 12:48:08;;;;;;;5.47;1.10;;;25.70;38.30;;;;;;5037670;28;20052;-60
2022/05/13 12:50:45;;;;;;;3.17;0.90;;;27.70;38.20;;;;;;5067408;28;20024;-60
2022/05/13 12:53:29;;;;;;;5.85;1.00;;;29.20;34.30;;;;;;5070108;28;20085;-60
2022/05/13 12:56:16;;;;;;;4.10;1.38;;;30.00;33.30;;;;;;5069696;28;20028;-60
2022/05/13 12:58:46;;;;;;;2.80;1.00;;;29.10;30.70;;;;;;5067219;28;20089;-61
2022/05/13 13:01:13;;;;;;;2.90;0.77;;;29.50;30.40;;;;;;5066722;28;20028;-60
2022/05/13 13:03:42;;;;;;;4.38;1.08;;;29.40;29.60;;;;;;5066630;28;20059;-61
2022/05/13 13:06:16;;;;;;;3.85;1.25;;;29.10;31.70;;;;;;5066295;28;20127;-61
2022/05/13 13:08:44;;;;;;;2.38;0.60;;;28.70;28.70;;;;;;5066445;28;20059;-60
2022/05/13 13:11:12;;;;;;;4.03;0.95;;;29.10;30.70;;;;;;5066170;28;20138;-60
2022/05/13 13:14:03;;;;;;;2.40;0.82;;;27.90;31.90;;;;;;5066543;28;20039;-60
2022/05/13 13:16:48;;;;;;;1.75;0.77;;;27.30;34.10;;;;;;5069265;28;20023;-60
2022/05/13 13:19:23;;;;;;;3.78;1.08;;;26.10;36.30;;;;;;5065952;28;20488;-60
2022/05/13 13:22:04;;;;;;;3.95;1.02;;;25.50;38.20;;;;;;5046632;28;20055;-61
2022/05/13 13:24:43;;;;;;;3.47;0.82;;;25.80;40.10;;;;;;5046650;28;20524;-60
2022/05/13 13:27:18;;;;;;;4.10;0.98;;;25.30;40.80;;;;;;5045882;28;20120;-60
2022/05/13 13:29:46;;;;;;;7.18;1.10;;;24.80;43.70;;;;;;5046182;28;20025;-61
2022/05/13 13:32:17;;;;;;;4.32;0.77;;;24.20;44.80;;;;;;5046429;28;20067;-60
2022/05/13 13:34:59;;;;;;;2.72;1.25;;;24.70;45.70;;;;;;5046441;28;20029;-62